sensor_id;sensor_type;location;lat;lon;timestamp;temperature;humidity
16032;DHT22;8120;48.308;8.914;2023-04-24T00:02:16;9.30;77.10
16032;DHT22;8120;48.308;8.914;2023-04-24T00:04:44;9.30;77.10
16032;DHT22;8120;48.308;8.914;2023-04-24T00:07:12;9.30;77.10
16032;DHT22;8120;48.308;8.914;2023-04-24T00:09:42;9.30;76.60
16032;DHT22;8120;48.308;8.914;2023-04-24T00:12:10;9.40;75.80
16032;DHT22;8120;48.308;8.914;2023-04-24T00:14:38;9.40;75.50
16032;DHT22;8120;48.308;8.914;2023-04-24T00:17:06;9.50;75.30
16032;DHT22;8120;48.308;8.914;2023-04-24T00:19:34;9.50;75.30
16032;DHT22;8120;48.308;8.914;2023-04-24T00:22:02;9.50;74.80
16032;DHT22;8120;48.308;8.914;2023-04-24T00:24:30;9.60;74.40
16032;DHT22;8120;48.308;8.914;2023-04-24T00:26:59;9.60;74.60
16032;DHT22;8120;48.308;8.914;2023-04-24T00:29:27;9.60;74.60
16032;DHT22;8120;48.308;8.914;2023-04-24T00:31:55;9.60;74.20
16032;DHT22;8120;48.308;8.914;2023-04-24T00:34:23;9.70;74.00
16032;DHT22;8120;48.308;8.914;2023-04-24T00:36:51;9.60;73.60
16032;DHT22;8120;48.308;8.914;2023-04-24T00:39:19;9.60;73.80
16032;DHT22;8120;48.308;8.914;2023-04-24T00:41:47;9.70;74.10
16032;DHT22;8120;48.308;8.914;2023-04-24T00:44:17;9.60;75.30
16032;DHT22;8120;48.308;8.914;2023-04-24T00:46:46;9.50;76.00
16032;DHT22;8120;48.308;8.914;2023-04-24T00:49:18;9.50;76.00
16032;DHT22;8120;48.308;8.914;2023-04-24T00:51:46;9.50;76.40
16032;DHT22;8120;48.308;8.914;2023-04-24T00:54:14;9.50;76.00
16032;DHT22;8120;48.308;8.914;2023-04-24T00:56:42;9.40;76.20
16032;DHT22;8120;48.308;8.914;2023-04-24T00:59:11;9.40;76.20
16032;DHT22;8120;48.308;8.914;2023-04-24T01:01:40;9.40;75.70
16032;DHT22;8120;48.308;8.914;2023-04-24T01:04:09;9.40;75.80
16032;DHT22;8120;48.308;8.914;2023-04-24T01:06:39;9.40;75.60
16032;DHT22;8120;48.308;8.914;2023-04-24T01:09:07;9.40;75.60
16032;DHT22;8120;48.308;8.914;2023-04-24T01:11:36;9.40;75.40
16032;DHT22;8120;48.308;8.914;2023-04-24T01:14:04;9.40;75.30
16032;DHT22;8120;48.308;8.914;2023-04-24T01:16:32;9.40;75.70
16032;DHT22;8120;48.308;8.914;2023-04-24T01:19:02;9.40;75.20
16032;DHT22;8120;48.308;8.914;2023-04-24T01:21:30;9.40;75.30
16032;DHT22;8120;48.308;8.914;2023-04-24T01:24:04;9.40;75.20
16032;DHT22;8120;48.308;8.914;2023-04-24T01:26:33;9.40;75.50
16032;DHT22;8120;48.308;8.914;2023-04-24T01:29:00;9.40;75.90
16032;DHT22;8120;48.308;8.914;2023-04-24T01:31:29;9.30;76.20
16032;DHT22;8120;48.308;8.914;2023-04-24T01:33:57;9.30;77.00
16032;DHT22;8120;48.308;8.914;2023-04-24T01:36:27;9.20;77.70
16032;DHT22;8120;48.308;8.914;2023-04-24T01:38:56;9.20;78.50
16032;DHT22;8120;48.308;8.914;2023-04-24T01:41:25;9.10;78.40
16032;DHT22;8120;48.308;8.914;2023-04-24T01:43:53;9.10;78.50
16032;DHT22;8120;48.308;8.914;2023-04-24T01:46:22;9.10;78.70
16032;DHT22;8120;48.308;8.914;2023-04-24T01:48:51;9.00;79.10
16032;DHT22;8120;48.308;8.914;2023-04-24T01:51:19;9.00;79.50
16032;DHT22;8120;48.308;8.914;2023-04-24T01:53:47;9.00;79.60
16032;DHT22;8120;48.308;8.914;2023-04-24T01:56:15;9.00;79.80
16032;DHT22;8120;48.308;8.914;2023-04-24T01:58:44;9.00;80.30
16032;DHT22;8120;48.308;8.914;2023-04-24T02:01:17;8.90;80.80
16032;DHT22;8120;48.308;8.914;2023-04-24T02:03:45;8.90;80.80
16032;DHT22;8120;48.308;8.914;2023-04-24T02:06:13;8.90;80.90
16032;DHT22;8120;48.308;8.914;2023-04-24T02:08:41;8.90;81.00
16032;DHT22;8120;48.308;8.914;2023-04-24T02:11:09;8.90;80.70
16032;DHT22;8120;48.308;8.914;2023-04-24T02:13:37;9.00;79.30
16032;DHT22;8120;48.308;8.914;2023-04-24T02:16:06;9.00;79.10
16032;DHT22;8120;48.308;8.914;2023-04-24T02:18:34;9.00;78.80
16032;DHT22;8120;48.308;8.914;2023-04-24T02:21:02;9.10;78.60
16032;DHT22;8120;48.308;8.914;2023-04-24T02:23:30;9.10;78.40
16032;DHT22;8120;48.308;8.914;2023-04-24T02:25:58;9.00;79.00
16032;DHT22;8120;48.308;8.914;2023-04-24T02:28:25;9.00;79.50
16032;DHT22;8120;48.308;8.914;2023-04-24T02:30:53;9.00;80.20
16032;DHT22;8120;48.308;8.914;2023-04-24T02:33:22;8.90;82.00
16032;DHT22;8120;48.308;8.914;2023-04-24T02:35:50;8.80;82.90
16032;DHT22;8120;48.308;8.914;2023-04-24T02:38:18;8.70;83.80
16032;DHT22;8120;48.308;8.914;2023-04-24T02:40:46;8.70;84.70
16032;DHT22;8120;48.308;8.914;2023-04-24T02:43:14;8.60;84.00
16032;DHT22;8120;48.308;8.914;2023-04-24T02:45:41;8.50;84.40
16032;DHT22;8120;48.308;8.914;2023-04-24T02:48:09;8.40;84.70
16032;DHT22;8120;48.308;8.914;2023-04-24T02:50:39;8.40;85.00
16032;DHT22;8120;48.308;8.914;2023-04-24T02:53:06;8.30;85.60
16032;DHT22;8120;48.308;8.914;2023-04-24T02:55:34;8.20;86.10
16032;DHT22;8120;48.308;8.914;2023-04-24T02:58:02;8.10;86.20
16032;DHT22;8120;48.308;8.914;2023-04-24T03:00:30;8.20;86.10
16032;DHT22;8120;48.308;8.914;2023-04-24T03:02:58;8.20;85.60
16032;DHT22;8120;48.308;8.914;2023-04-24T03:05:26;8.30;84.40
16032;DHT22;8120;48.308;8.914;2023-04-24T03:07:56;8.30;84.20
16032;DHT22;8120;48.308;8.914;2023-04-24T03:10:24;8.20;84.40
16032;DHT22;8120;48.308;8.914;2023-04-24T03:12:52;8.20;84.40
16032;DHT22;8120;48.308;8.914;2023-04-24T03:15:21;8.30;84.00
16032;DHT22;8120;48.308;8.914;2023-04-24T03:17:49;8.20;84.10
16032;DHT22;8120;48.308;8.914;2023-04-24T03:20:17;8.10;85.00
16032;DHT22;8120;48.308;8.914;2023-04-24T03:22:45;8.00;84.90
16032;DHT22;8120;48.308;8.914;2023-04-24T03:25:14;8.00;85.50
16032;DHT22;8120;48.308;8.914;2023-04-24T03:27:42;7.90;85.90
16032;DHT22;8120;48.308;8.914;2023-04-24T03:30:10;7.80;86.40
16032;DHT22;8120;48.308;8.914;2023-04-24T03:32:38;7.80;86.50
16032;DHT22;8120;48.308;8.914;2023-04-24T03:35:07;7.70;86.60
16032;DHT22;8120;48.308;8.914;2023-04-24T03:37:35;7.70;87.00
16032;DHT22;8120;48.308;8.914;2023-04-24T03:40:04;7.60;87.70
16032;DHT22;8120;48.308;8.914;2023-04-24T03:42:33;7.60;88.00
16032;DHT22;8120;48.308;8.914;2023-04-24T03:45:05;7.60;88.00
16032;DHT22;8120;48.308;8.914;2023-04-24T03:47:33;7.70;88.40
16032;DHT22;8120;48.308;8.914;2023-04-24T03:50:01;7.80;88.60
16032;DHT22;8120;48.308;8.914;2023-04-24T03:52:29;7.80;88.00
16032;DHT22;8120;48.308;8.914;2023-04-24T03:54:57;7.90;88.10
16032;DHT22;8120;48.308;8.914;2023-04-24T03:57:25;7.90;88.40
16032;DHT22;8120;48.308;8.914;2023-04-24T03:59:54;7.90;88.60
16032;DHT22;8120;48.308;8.914;2023-04-24T04:02:22;7.90;88.60
16032;DHT22;8120;48.308;8.914;2023-04-24T04:04:50;7.80;89.00
16032;DHT22;8120;48.308;8.914;2023-04-24T04:07:18;7.80;89.30
16032;DHT22;8120;48.308;8.914;2023-04-24T04:09:46;7.70;89.00
16032;DHT22;8120;48.308;8.914;2023-04-24T04:12:14;7.70;89.20
16032;DHT22;8120;48.308;8.914;2023-04-24T04:14:42;7.60;89.60
16032;DHT22;8120;48.308;8.914;2023-04-24T04:17:11;7.60;89.50
16032;DHT22;8120;48.308;8.914;2023-04-24T04:19:39;7.60;90.70
16032;DHT22;8120;48.308;8.914;2023-04-24T04:22:07;7.70;89.50
16032;DHT22;8120;48.308;8.914;2023-04-24T04:24:35;7.70;89.80
16032;DHT22;8120;48.308;8.914;2023-04-24T04:27:05;7.60;90.40
16032;DHT22;8120;48.308;8.914;2023-04-24T04:29:32;7.60;90.80
16032;DHT22;8120;48.308;8.914;2023-04-24T04:32:01;7.60;91.00
16032;DHT22;8120;48.308;8.914;2023-04-24T04:34:30;7.60;91.20
16032;DHT22;8120;48.308;8.914;2023-04-24T04:37:00;7.60;91.30
16032;DHT22;8120;48.308;8.914;2023-04-24T04:39:28;7.70;91.00
16032;DHT22;8120;48.308;8.914;2023-04-24T04:41:57;7.90;89.50
16032;DHT22;8120;48.308;8.914;2023-04-24T04:44:25;7.40;86.90
16032;DHT22;8120;48.308;8.914;2023-04-24T04:46:56;6.50;91.50
16032;DHT22;8120;48.308;8.914;2023-04-24T04:49:25;6.40;91.70
16032;DHT22;8120;48.308;8.914;2023-04-24T04:51:56;6.40;91.60
16032;DHT22;8120;48.308;8.914;2023-04-24T04:54:24;6.40;88.00
16032;DHT22;8120;48.308;8.914;2023-04-24T04:56:52;6.50;86.30
16032;DHT22;8120;48.308;8.914;2023-04-24T04:59:19;6.40;86.50
16032;DHT22;8120;48.308;8.914;2023-04-24T05:01:47;6.40;86.70
16032;DHT22;8120;48.308;8.914;2023-04-24T05:04:15;6.30;87.30
16032;DHT22;8120;48.308;8.914;2023-04-24T05:06:43;6.30;87.70
16032;DHT22;8120;48.308;8.914;2023-04-24T05:09:13;6.30;88.60
16032;DHT22;8120;48.308;8.914;2023-04-24T05:11:41;6.30;88.90
16032;DHT22;8120;48.308;8.914;2023-04-24T05:14:09;6.30;89.40
16032;DHT22;8120;48.308;8.914;2023-04-24T05:16:39;6.30;88.80
16032;DHT22;8120;48.308;8.914;2023-04-24T05:19:07;6.40;89.30
16032;DHT22;8120;48.308;8.914;2023-04-24T05:21:34;6.40;89.60
16032;DHT22;8120;48.308;8.914;2023-04-24T05:24:03;6.40;89.20
16032;DHT22;8120;48.308;8.914;2023-04-24T05:26:32;6.30;89.40
16032;DHT22;8120;48.308;8.914;2023-04-24T05:29:00;6.30;89.70
16032;DHT22;8120;48.308;8.914;2023-04-24T05:31:29;6.40;89.50
16032;DHT22;8120;48.308;8.914;2023-04-24T05:33:57;6.40;90.00
16032;DHT22;8120;48.308;8.914;2023-04-24T05:36:25;6.40;89.90
16032;DHT22;8120;48.308;8.914;2023-04-24T05:38:54;6.50;90.00
16032;DHT22;8120;48.308;8.914;2023-04-24T05:41:22;6.60;89.50
16032;DHT22;8120;48.308;8.914;2023-04-24T05:43:51;6.60;89.50
16032;DHT22;8120;48.308;8.914;2023-04-24T05:46:19;6.60;89.70
16032;DHT22;8120;48.308;8.914;2023-04-24T05:48:47;6.60;89.00
16032;DHT22;8120;48.308;8.914;2023-04-24T05:51:14;6.70;89.50
16032;DHT22;8120;48.308;8.914;2023-04-24T05:53:42;6.70;89.10
16032;DHT22;8120;48.308;8.914;2023-04-24T05:56:10;6.90;89.50
16032;DHT22;8120;48.308;8.914;2023-04-24T05:58:38;7.00;88.80
16032;DHT22;8120;48.308;8.914;2023-04-24T06:01:07;7.10;88.50
16032;DHT22;8120;48.308;8.914;2023-04-24T06:03:36;7.20;87.30
16032;DHT22;8120;48.308;8.914;2023-04-24T06:06:05;7.40;86.20
16032;DHT22;8120;48.308;8.914;2023-04-24T06:08:33;7.40;85.90
16032;DHT22;8120;48.308;8.914;2023-04-24T06:11:01;7.40;85.30
16032;DHT22;8120;48.308;8.914;2023-04-24T06:13:30;7.40;84.80
16032;DHT22;8120;48.308;8.914;2023-04-24T06:15:58;7.60;84.40
16032;DHT22;8120;48.308;8.914;2023-04-24T06:18:27;8.20;83.20
16032;DHT22;8120;48.308;8.914;2023-04-24T06:20:55;8.70;81.20
16032;DHT22;8120;48.308;8.914;2023-04-24T06:23:23;9.10;78.40
16032;DHT22;8120;48.308;8.914;2023-04-24T06:25:51;9.30;77.00
16032;DHT22;8120;48.308;8.914;2023-04-24T06:28:19;9.70;76.50
16032;DHT22;8120;48.308;8.914;2023-04-24T06:30:47;10.10;74.50
16032;DHT22;8120;48.308;8.914;2023-04-24T06:33:16;10.30;74.10
16032;DHT22;8120;48.308;8.914;2023-04-24T06:35:49;10.10;74.90
16032;DHT22;8120;48.308;8.914;2023-04-24T06:38:17;9.70;75.20
16032;DHT22;8120;48.308;8.914;2023-04-24T06:40:45;9.50;76.40
16032;DHT22;8120;48.308;8.914;2023-04-24T06:43:12;9.40;77.70
16032;DHT22;8120;48.308;8.914;2023-04-24T06:45:41;9.50;77.20
16032;DHT22;8120;48.308;8.914;2023-04-24T06:48:10;9.90;74.70
16032;DHT22;8120;48.308;8.914;2023-04-24T06:50:38;10.20;73.80
16032;DHT22;8120;48.308;8.914;2023-04-24T06:53:07;10.30;74.40
16032;DHT22;8120;48.308;8.914;2023-04-24T06:55:37;10.10;73.40
16032;DHT22;8120;48.308;8.914;2023-04-24T06:58:05;10.40;73.30
16032;DHT22;8120;48.308;8.914;2023-04-24T07:00:33;10.30;74.00
16032;DHT22;8120;48.308;8.914;2023-04-24T07:03:01;9.70;73.70
16032;DHT22;8120;48.308;8.914;2023-04-24T07:05:29;9.60;74.50
16032;DHT22;8120;48.308;8.914;2023-04-24T07:07:57;9.60;74.40
16032;DHT22;8120;48.308;8.914;2023-04-24T07:10:27;9.80;73.50
16032;DHT22;8120;48.308;8.914;2023-04-24T07:12:55;9.60;73.10
16032;DHT22;8120;48.308;8.914;2023-04-24T07:15:23;9.30;74.60
16032;DHT22;8120;48.308;8.914;2023-04-24T07:17:51;9.30;74.10
16032;DHT22;8120;48.308;8.914;2023-04-24T07:20:19;9.00;74.90
16032;DHT22;8120;48.308;8.914;2023-04-24T07:22:47;8.90;76.50
16032;DHT22;8120;48.308;8.914;2023-04-24T07:25:16;8.20;79.20
16032;DHT22;8120;48.308;8.914;2023-04-24T07:27:45;7.50;84.10
16032;DHT22;8120;48.308;8.914;2023-04-24T07:30:13;7.40;86.00
16032;DHT22;8120;48.308;8.914;2023-04-24T07:32:41;7.20;85.00
16032;DHT22;8120;48.308;8.914;2023-04-24T07:35:09;7.10;85.50
16032;DHT22;8120;48.308;8.914;2023-04-24T07:37:37;7.40;86.60
16032;DHT22;8120;48.308;8.914;2023-04-24T07:40:06;7.50;86.50
16032;DHT22;8120;48.308;8.914;2023-04-24T07:42:34;7.30;86.20
16032;DHT22;8120;48.308;8.914;2023-04-24T07:45:05;7.30;86.80
16032;DHT22;8120;48.308;8.914;2023-04-24T07:47:33;7.30;87.50
16032;DHT22;8120;48.308;8.914;2023-04-24T07:50:03;7.40;86.60
16032;DHT22;8120;48.308;8.914;2023-04-24T07:52:31;7.30;85.90
16032;DHT22;8120;48.308;8.914;2023-04-24T07:54:59;7.40;87.10
16032;DHT22;8120;48.308;8.914;2023-04-24T07:57:28;7.40;85.30
16032;DHT22;8120;48.308;8.914;2023-04-24T07:59:56;7.60;86.00
16032;DHT22;8120;48.308;8.914;2023-04-24T08:02:25;7.50;85.50
16032;DHT22;8120;48.308;8.914;2023-04-24T08:04:54;7.80;83.60
16032;DHT22;8120;48.308;8.914;2023-04-24T08:07:25;7.70;82.70
16032;DHT22;8120;48.308;8.914;2023-04-24T08:09:52;7.80;81.50
16032;DHT22;8120;48.308;8.914;2023-04-24T08:12:20;7.70;83.20
16032;DHT22;8120;48.308;8.914;2023-04-24T08:14:48;8.00;83.70
16032;DHT22;8120;48.308;8.914;2023-04-24T08:17:16;8.00;82.20
16032;DHT22;8120;48.308;8.914;2023-04-24T08:19:46;7.90;82.20
16032;DHT22;8120;48.308;8.914;2023-04-24T08:22:15;7.70;82.30
16032;DHT22;8120;48.308;8.914;2023-04-24T08:24:43;7.90;81.90
16032;DHT22;8120;48.308;8.914;2023-04-24T08:27:11;8.00;81.00
16032;DHT22;8120;48.308;8.914;2023-04-24T08:29:39;8.30;81.00
16032;DHT22;8120;48.308;8.914;2023-04-24T08:32:07;8.30;80.00
16032;DHT22;8120;48.308;8.914;2023-04-24T08:34:35;8.50;79.00
16032;DHT22;8120;48.308;8.914;2023-04-24T08:37:04;8.60;77.90
16032;DHT22;8120;48.308;8.914;2023-04-24T08:39:32;8.80;77.00
16032;DHT22;8120;48.308;8.914;2023-04-24T08:42:00;9.40;75.80
16032;DHT22;8120;48.308;8.914;2023-04-24T08:44:32;9.90;76.10
16032;DHT22;8120;48.308;8.914;2023-04-24T08:47:00;9.80;73.80
16032;DHT22;8120;48.308;8.914;2023-04-24T08:49:29;9.20;71.10
16032;DHT22;8120;48.308;8.914;2023-04-24T08:51:57;8.60;74.00
16032;DHT22;8120;48.308;8.914;2023-04-24T08:54:28;8.20;75.80
16032;DHT22;8120;48.308;8.914;2023-04-24T08:56:59;7.70;79.40
16032;DHT22;8120;48.308;8.914;2023-04-24T08:59:28;7.60;80.30
16032;DHT22;8120;48.308;8.914;2023-04-24T09:01:56;7.80;80.70
16032;DHT22;8120;48.308;8.914;2023-04-24T09:04:25;7.90;80.60
16032;DHT22;8120;48.308;8.914;2023-04-24T09:06:56;8.00;81.00
16032;DHT22;8120;48.308;8.914;2023-04-24T09:09:24;8.00;79.10
16032;DHT22;8120;48.308;8.914;2023-04-24T09:11:54;8.30;80.40
16032;DHT22;8120;48.308;8.914;2023-04-24T09:14:22;8.40;78.50
16032;DHT22;8120;48.308;8.914;2023-04-24T09:16:51;8.50;77.50
16032;DHT22;8120;48.308;8.914;2023-04-24T09:19:19;9.40;77.20
16032;DHT22;8120;48.308;8.914;2023-04-24T09:21:48;10.10;75.30
16032;DHT22;8120;48.308;8.914;2023-04-24T09:24:17;11.10;71.40
16032;DHT22;8120;48.308;8.914;2023-04-24T09:26:47;11.00;69.40
16032;DHT22;8120;48.308;8.914;2023-04-24T09:29:17;10.50;68.40
16032;DHT22;8120;48.308;8.914;2023-04-24T09:31:45;10.20;69.40
16032;DHT22;8120;48.308;8.914;2023-04-24T09:34:13;9.60;69.40
16032;DHT22;8120;48.308;8.914;2023-04-24T09:36:42;9.20;70.30
16032;DHT22;8120;48.308;8.914;2023-04-24T09:39:12;9.30;69.90
16032;DHT22;8120;48.308;8.914;2023-04-24T09:41:46;9.50;70.90
16032;DHT22;8120;48.308;8.914;2023-04-24T09:44:17;9.40;68.70
16032;DHT22;8120;48.308;8.914;2023-04-24T09:46:50;9.40;69.10
16032;DHT22;8120;48.308;8.914;2023-04-24T09:49:22;9.20;70.50
16032;DHT22;8120;48.308;8.914;2023-04-24T09:51:50;9.40;70.40
16032;DHT22;8120;48.308;8.914;2023-04-24T09:54:19;9.70;70.80
16032;DHT22;8120;48.308;8.914;2023-04-24T09:56:49;9.60;70.60
16032;DHT22;8120;48.308;8.914;2023-04-24T09:59:19;9.40;72.30
16032;DHT22;8120;48.308;8.914;2023-04-24T10:01:47;9.30;70.90
16032;DHT22;8120;48.308;8.914;2023-04-24T10:04:17;8.80;71.40
16032;DHT22;8120;48.308;8.914;2023-04-24T10:06:46;8.70;72.90
16032;DHT22;8120;48.308;8.914;2023-04-24T10:09:15;8.60;71.10
16032;DHT22;8120;48.308;8.914;2023-04-24T10:11:45;8.70;72.20
16032;DHT22;8120;48.308;8.914;2023-04-24T10:14:14;8.60;72.70
16032;DHT22;8120;48.308;8.914;2023-04-24T10:16:44;8.40;72.30
16032;DHT22;8120;48.308;8.914;2023-04-24T10:19:14;8.30;71.60
16032;DHT22;8120;48.308;8.914;2023-04-24T10:21:43;8.30;70.30
16032;DHT22;8120;48.308;8.914;2023-04-24T10:24:13;8.40;67.80
16032;DHT22;8120;48.308;8.914;2023-04-24T10:26:43;8.50;66.10
16032;DHT22;8120;48.308;8.914;2023-04-24T10:29:12;8.40;68.20
16032;DHT22;8120;48.308;8.914;2023-04-24T10:31:46;8.50;68.90
16032;DHT22;8120;48.308;8.914;2023-04-24T10:34:15;8.80;67.70
16032;DHT22;8120;48.308;8.914;2023-04-24T10:36:52;9.10;65.20
16032;DHT22;8120;48.308;8.914;2023-04-24T10:39:23;9.40;67.40
16032;DHT22;8120;48.308;8.914;2023-04-24T10:41:53;9.60;67.60
16032;DHT22;8120;48.308;8.914;2023-04-24T10:44:24;10.00;68.20
16032;DHT22;8120;48.308;8.914;2023-04-24T10:46:55;9.60;65.60
16032;DHT22;8120;48.308;8.914;2023-04-24T10:49:28;9.80;60.90
16032;DHT22;8120;48.308;8.914;2023-04-24T10:52:01;9.70;61.60
16032;DHT22;8120;48.308;8.914;2023-04-24T10:54:35;9.80;63.20
16032;DHT22;8120;48.308;8.914;2023-04-24T10:57:25;10.10;60.50
16032;DHT22;8120;48.308;8.914;2023-04-24T11:00:13;11.00;58.40
16032;DHT22;8120;48.308;8.914;2023-04-24T11:02:46;10.80;59.20
16032;DHT22;8120;48.308;8.914;2023-04-24T11:05:18;10.70;60.50
16032;DHT22;8120;48.308;8.914;2023-04-24T11:08:11;10.50;61.50
16032;DHT22;8120;48.308;8.914;2023-04-24T11:10:40;10.00;60.70
16032;DHT22;8120;48.308;8.914;2023-04-24T11:13:08;9.90;59.50
16032;DHT22;8120;48.308;8.914;2023-04-24T11:15:41;9.80;62.40
16032;DHT22;8120;48.308;8.914;2023-04-24T11:18:14;9.90;60.10
16032;DHT22;8120;48.308;8.914;2023-04-24T11:20:44;10.00;58.90
16032;DHT22;8120;48.308;8.914;2023-04-24T11:23:12;10.10;60.50
16032;DHT22;8120;48.308;8.914;2023-04-24T11:25:41;10.40;59.20
16032;DHT22;8120;48.308;8.914;2023-04-24T11:28:14;10.30;58.90
16032;DHT22;8120;48.308;8.914;2023-04-24T11:30:43;10.20;59.00
16032;DHT22;8120;48.308;8.914;2023-04-24T11:33:11;10.00;58.00
16032;DHT22;8120;48.308;8.914;2023-04-24T11:35:48;10.10;60.30
16032;DHT22;8120;48.308;8.914;2023-04-24T11:38:18;10.30;58.30
16032;DHT22;8120;48.308;8.914;2023-04-24T11:40:51;10.10;59.30
16032;DHT22;8120;48.308;8.914;2023-04-24T11:43:19;9.90;60.20
16032;DHT22;8120;48.308;8.914;2023-04-24T11:45:48;9.80;60.60
16032;DHT22;8120;48.308;8.914;2023-04-24T11:48:19;9.90;59.70
16032;DHT22;8120;48.308;8.914;2023-04-24T11:50:50;9.70;58.50
16032;DHT22;8120;48.308;8.914;2023-04-24T11:53:19;9.50;60.50
16032;DHT22;8120;48.308;8.914;2023-04-24T11:55:48;9.40;60.90
16032;DHT22;8120;48.308;8.914;2023-04-24T11:58:20;9.30;61.10
16032;DHT22;8120;48.308;8.914;2023-04-24T12:00:56;9.20;59.70
16032;DHT22;8120;48.308;8.914;2023-04-24T12:03:23;9.00;61.10
16032;DHT22;8120;48.308;8.914;2023-04-24T12:06:04;8.90;60.20
16032;DHT22;8120;48.308;8.914;2023-04-24T12:08:33;8.50;61.70
16032;DHT22;8120;48.308;8.914;2023-04-24T12:11:05;8.50;62.40
16032;DHT22;8120;48.308;8.914;2023-04-24T12:13:34;8.50;62.70
16032;DHT22;8120;48.308;8.914;2023-04-24T12:16:03;8.50;62.60
16032;DHT22;8120;48.308;8.914;2023-04-24T12:18:32;8.50;62.30
16032;DHT22;8120;48.308;8.914;2023-04-24T12:21:18;8.50;62.90
16032;DHT22;8120;48.308;8.914;2023-04-24T12:23:49;8.60;63.70
16032;DHT22;8120;48.308;8.914;2023-04-24T12:26:17;8.40;63.90
16032;DHT22;8120;48.308;8.914;2023-04-24T12:28:47;8.30;62.70
16032;DHT22;8120;48.308;8.914;2023-04-24T12:31:16;8.30;63.90
16032;DHT22;8120;48.308;8.914;2023-04-24T12:33:44;8.40;64.10
16032;DHT22;8120;48.308;8.914;2023-04-24T12:36:12;8.40;62.40
16032;DHT22;8120;48.308;8.914;2023-04-24T12:38:43;8.40;62.50
16032;DHT22;8120;48.308;8.914;2023-04-24T12:41:13;8.60;61.80
16032;DHT22;8120;48.308;8.914;2023-04-24T12:43:51;8.90;62.20
16032;DHT22;8120;48.308;8.914;2023-04-24T12:46:19;9.10;62.10
16032;DHT22;8120;48.308;8.914;2023-04-24T12:48:48;9.50;61.30
16032;DHT22;8120;48.308;8.914;2023-04-24T12:51:16;9.80;62.00
16032;DHT22;8120;48.308;8.914;2023-04-24T12:53:45;9.70;59.80
16032;DHT22;8120;48.308;8.914;2023-04-24T12:56:13;9.80;59.70
16032;DHT22;8120;48.308;8.914;2023-04-24T12:58:41;10.10;58.60
16032;DHT22;8120;48.308;8.914;2023-04-24T13:01:09;10.30;58.60
16032;DHT22;8120;48.308;8.914;2023-04-24T13:03:36;10.60;57.20
16032;DHT22;8120;48.308;8.914;2023-04-24T13:06:05;10.70;58.20
16032;DHT22;8120;48.308;8.914;2023-04-24T13:08:33;10.60;58.40
16032;DHT22;8120;48.308;8.914;2023-04-24T13:11:02;10.40;57.60
16032;DHT22;8120;48.308;8.914;2023-04-24T13:13:30;10.40;57.20
16032;DHT22;8120;48.308;8.914;2023-04-24T13:15:58;10.40;57.20
16032;DHT22;8120;48.308;8.914;2023-04-24T13:18:26;10.70;55.70
16032;DHT22;8120;48.308;8.914;2023-04-24T13:20:53;10.60;56.50
16032;DHT22;8120;48.308;8.914;2023-04-24T13:23:22;10.40;56.80
16032;DHT22;8120;48.308;8.914;2023-04-24T13:25:50;10.50;57.00
16032;DHT22;8120;48.308;8.914;2023-04-24T13:28:19;10.40;55.70
16032;DHT22;8120;48.308;8.914;2023-04-24T13:30:47;10.20;57.80
16032;DHT22;8120;48.308;8.914;2023-04-24T13:33:17;10.20;57.40
16032;DHT22;8120;48.308;8.914;2023-04-24T13:35:45;10.40;56.20
16032;DHT22;8120;48.308;8.914;2023-04-24T13:38:13;10.20;55.90
16032;DHT22;8120;48.308;8.914;2023-04-24T13:40:41;10.20;56.30
16032;DHT22;8120;48.308;8.914;2023-04-24T13:43:09;10.10;56.50
16032;DHT22;8120;48.308;8.914;2023-04-24T13:45:38;10.10;57.10
16032;DHT22;8120;48.308;8.914;2023-04-24T13:48:06;10.30;56.70
16032;DHT22;8120;48.308;8.914;2023-04-24T13:50:35;10.20;55.90
16032;DHT22;8120;48.308;8.914;2023-04-24T13:53:03;10.10;56.40
16032;DHT22;8120;48.308;8.914;2023-04-24T13:55:31;10.10;56.20
16032;DHT22;8120;48.308;8.914;2023-04-24T13:57:59;9.90;56.10
16032;DHT22;8120;48.308;8.914;2023-04-24T14:00:27;10.10;56.10
16032;DHT22;8120;48.308;8.914;2023-04-24T14:02:57;10.20;56.20
16032;DHT22;8120;48.308;8.914;2023-04-24T14:05:25;10.00;55.80
16032;DHT22;8120;48.308;8.914;2023-04-24T14:07:53;10.20;55.70
16032;DHT22;8120;48.308;8.914;2023-04-24T14:10:20;10.20;56.30
16032;DHT22;8120;48.308;8.914;2023-04-24T14:12:48;10.60;54.70
16032;DHT22;8120;48.308;8.914;2023-04-24T14:15:16;10.60;54.80
16032;DHT22;8120;48.308;8.914;2023-04-24T14:17:44;10.60;53.90
16032;DHT22;8120;48.308;8.914;2023-04-24T14:20:13;10.70;55.10
16032;DHT22;8120;48.308;8.914;2023-04-24T14:22:41;10.70;55.60
16032;DHT22;8120;48.308;8.914;2023-04-24T14:25:09;10.60;56.30
16032;DHT22;8120;48.308;8.914;2023-04-24T14:27:37;10.90;55.60
16032;DHT22;8120;48.308;8.914;2023-04-24T14:30:07;10.40;52.80
16032;DHT22;8120;48.308;8.914;2023-04-24T14:32:35;10.10;55.00
16032;DHT22;8120;48.308;8.914;2023-04-24T14:35:04;10.10;55.90
16032;DHT22;8120;48.308;8.914;2023-04-24T14:37:34;9.90;55.10
16032;DHT22;8120;48.308;8.914;2023-04-24T14:40:02;9.90;55.60
16032;DHT22;8120;48.308;8.914;2023-04-24T14:42:50;10.00;55.00
16032;DHT22;8120;48.308;8.914;2023-04-24T14:45:18;10.00;55.50
16032;DHT22;8120;48.308;8.914;2023-04-24T14:47:46;9.80;55.50
16032;DHT22;8120;48.308;8.914;2023-04-24T14:50:14;9.90;55.40
16032;DHT22;8120;48.308;8.914;2023-04-24T14:52:43;9.90;56.50
16032;DHT22;8120;48.308;8.914;2023-04-24T14:55:11;10.00;55.90
16032;DHT22;8120;48.308;8.914;2023-04-24T14:57:40;10.20;55.70
16032;DHT22;8120;48.308;8.914;2023-04-24T15:00:09;10.40;55.20
16032;DHT22;8120;48.308;8.914;2023-04-24T15:02:38;10.50;54.50
16032;DHT22;8120;48.308;8.914;2023-04-24T15:05:09;10.50;54.90
16032;DHT22;8120;48.308;8.914;2023-04-24T15:07:37;10.30;55.10
16032;DHT22;8120;48.308;8.914;2023-04-24T15:10:07;10.50;54.90
16032;DHT22;8120;48.308;8.914;2023-04-24T15:12:35;10.50;54.10
16032;DHT22;8120;48.308;8.914;2023-04-24T15:15:04;10.60;54.90
16032;DHT22;8120;48.308;8.914;2023-04-24T15:17:32;10.70;55.20
16032;DHT22;8120;48.308;8.914;2023-04-24T15:20:00;10.90;53.60
16032;DHT22;8120;48.308;8.914;2023-04-24T15:22:29;10.70;54.50
16032;DHT22;8120;48.308;8.914;2023-04-24T15:24:57;10.90;54.60
16032;DHT22;8120;48.308;8.914;2023-04-24T15:27:26;11.10;54.80
16032;DHT22;8120;48.308;8.914;2023-04-24T15:29:54;11.30;53.20
16032;DHT22;8120;48.308;8.914;2023-04-24T15:32:22;11.50;52.60
16032;DHT22;8120;48.308;8.914;2023-04-24T15:34:50;11.90;51.00
16032;DHT22;8120;48.308;8.914;2023-04-24T15:37:33;11.70;51.60
16032;DHT22;8120;48.308;8.914;2023-04-24T15:40:01;11.50;50.70
16032;DHT22;8120;48.308;8.914;2023-04-24T15:42:32;11.70;51.90
16032;DHT22;8120;48.308;8.914;2023-04-24T15:45:00;11.70;53.20
16032;DHT22;8120;48.308;8.914;2023-04-24T15:47:28;11.80;51.80
16032;DHT22;8120;48.308;8.914;2023-04-24T15:49:57;11.80;51.70
16032;DHT22;8120;48.308;8.914;2023-04-24T15:52:25;12.00;51.50
16032;DHT22;8120;48.308;8.914;2023-04-24T15:54:53;12.30;50.70
16032;DHT22;8120;48.308;8.914;2023-04-24T15:57:21;11.90;50.30
16032;DHT22;8120;48.308;8.914;2023-04-24T15:59:50;11.80;52.30
16032;DHT22;8120;48.308;8.914;2023-04-24T16:02:18;12.10;52.10
16032;DHT22;8120;48.308;8.914;2023-04-24T16:04:47;12.10;50.90
16032;DHT22;8120;48.308;8.914;2023-04-24T16:07:16;12.00;50.90
16032;DHT22;8120;48.308;8.914;2023-04-24T16:09:44;12.00;50.30